Amado, Arizona
Current Conditions -  °F | °C
As of 7:54 AM on Saturday 20 Dec 2014 (Local Time) from KOLS Reporting Station
Clear Clear  
Wind Chill: 29°   Ceiling: Unl
Heat Index: 33°   Visibility: 10mi
Dew Point: 29°   Wind: 5mph
Humidity: 85%   Direction: 10°N
Pressure: 30.12"   Gusts: NA
Location:  31.71°N, 111.07°W
Report Text: KOLS 201454Z AUTO 01004KT 10SM CLR 01/M02 A3012 RMK AO2 SLP188 T00061017 53003
Loading
Personal Weather Stations






























Interactive Weather Map New forecast layout! Learn more

10-Day Weather Forecast

Advertisements
Track Severe Weather on mobile